Time;durP1;ratioP1;P1;durP2;ratioP2;P2;SDS_P1;SDS_P2;PMS_P1;PMS_P2;Temp;Humidity;BMP_temperature;BMP_pressure;BME280_temperature;BME280_humidity;BME280_pressure;Samples;Min_cycle;Max_cycle;Signal;HPM_P1;HPM_P2
2021/12/03 00:00:01;;;;;;;16.35;8.23;;;;;;;5.26;88.75;97121.69;4972655;28;20102;-58
2021/12/03 00:02:26;;;;;;;9.95;5.13;;;;;;;7.51;100.00;97127.78;4971338;28;20069;-56
2021/12/03 00:04:52;;;;;;;15.18;8.82;;;;;;;5.78;84.97;97132.78;4972531;28;20432;-56
2021/12/03 00:07:18;;;;;;;15.93;8.18;;;;;;;5.37;91.90;97138.50;4972769;28;20503;-56
2021/12/03 00:09:43;;;;;;;17.38;6.38;;;;;;;5.52;96.41;97141.47;4972638;28;20046;-58
2021/12/03 00:12:09;;;;;;;6.53;2.90;;;;;;;7.97;100.00;97145.72;4973122;28;20508;-57
2021/12/03 00:14:35;;;;;;;16.27;8.50;;;;;;;5.75;93.62;97149.28;4971090;28;20096;-57
2021/12/03 00:17:02;;;;;;;14.15;8.15;;;;;;;5.62;91.50;97160.09;4971565;28;20635;-56
2021/12/03 00:19:28;;;;;;;18.60;7.72;;;;;;;6.51;100.00;97165.53;4971975;28;20033;-57
2021/12/03 00:21:53;;;;;;;14.20;6.75;;;;;;;6.11;93.83;97167.00;4970389;28;20034;-58
2021/12/03 00:24:18;;;;;;;15.88;9.45;;;;;;;6.02;91.06;97182.03;4972320;28;20038;-57
2021/12/03 00:26:44;;;;;;;11.30;5.45;;;;;;;6.80;100.00;97180.84;4973079;28;20034;-56
2021/12/03 00:29:09;;;;;;;13.35;7.30;;;;;;;6.62;84.52;97188.44;4972913;28;20357;-56
2021/12/03 00:31:35;;;;;;;6.57;3.83;;;;;;;6.77;98.87;97192.19;4971988;28;20048;-57
2021/12/03 00:34:01;;;;;;;11.70;6.80;;;;;;;7.12;98.13;97192.53;4970114;28;20031;-56
2021/12/03 00:36:28;;;;;;;11.70;6.10;;;;;;;5.75;98.95;97203.63;4980397;28;20054;-57
2021/12/03 00:38:55;;;;;;;11.18;5.22;;;;;;;7.08;99.75;97207.38;4971638;28;20081;-56
2021/12/03 00:41:21;;;;;;;5.28;2.50;;;;;;;7.08;100.00;97212.56;4970747;28;20066;-57
2021/12/03 00:43:51;;;;;;;18.10;9.55;;;;;;;5.14;86.57;97214.22;4973238;28;20557;-56
2021/12/03 00:46:17;;;;;;;7.28;2.83;;;;;;;6.20;100.00;97220.19;4973231;28;20559;-57
2021/12/03 00:48:45;;;;;;;11.88;5.93;;;;;;;6.86;100.00;97222.09;4971989;28;20477;-56
2021/12/03 00:51:12;;;;;;;7.13;2.85;;;;;;;7.45;98.64;97224.06;4972513;28;20038;-56
2021/12/03 00:53:38;;;;;;;14.77;7.78;;;;;;;5.43;90.83;97229.72;4971650;28;20031;-57
2021/12/03 00:56:05;;;;;;;6.20;2.72;;;;;;;7.68;100.00;97230.91;4971532;28;20074;-56
2021/12/03 00:58:30;;;;;;;6.90;3.25;;;;;;;8.22;100.00;97239.00;4973334;28;20026;-56
2021/12/03 01:00:56;;;;;;;12.10;7.13;;;;;;;6.21;93.95;97250.34;4980051;28;20046;-58
2021/12/03 01:03:22;;;;;;;13.43;7.53;;;;;;;5.87;96.71;97251.50;4973126;28;20554;-56
2021/12/03 01:05:47;;;;;;;11.13;6.50;;;;;;;4.98;84.37;97244.91;4971073;28;20049;-56
2021/12/03 01:08:12;;;;;;;10.35;5.63;;;;;;;5.51;91.51;97248.41;4969647;28;20031;-56
2021/12/03 01:10:38;;;;;;;16.00;8.80;;;;;;;5.29;83.69;97237.91;4969853;28;20077;-57
2021/12/03 01:13:04;;;;;;;15.80;5.45;;;;;;;6.05;99.55;97238.88;4969605;28;20077;-58
2021/12/03 01:15:33;;;;;;;15.07;8.25;;;;;;;4.69;84.34;97238.03;4970579;28;20511;-56
2021/12/03 01:17:58;;;;;;;14.05;7.93;;;;;;;5.27;97.89;97244.88;4972433;28;20065;-56
2021/12/03 01:20:24;;;;;;;11.38;5.90;;;;;;;5.09;95.21;97242.00;4970800;28;20058;-56
2021/12/03 01:22:52;;;;;;;12.45;6.38;;;;;;;5.12;89.04;97241.03;4972088;28;20565;-56
2021/12/03 01:25:19;;;;;;;14.07;7.93;;;;;;;4.57;87.01;97248.72;4971123;28;20121;-57
2021/12/03 01:27:45;;;;;;;10.15;4.85;;;;;;;5.01;97.75;97243.94;4969880;28;20023;-56
2021/12/03 01:30:13;;;;;;;10.02;4.80;;;;;;;5.72;100.00;97263.22;4971217;28;20038;-56
2021/12/03 01:32:39;;;;;;;11.52;4.22;;;;;;;5.63;100.00;97260.94;4971956;28;20425;-56
2021/12/03 01:35:06;;;;;;;9.05;3.63;;;;;;;6.16;94.08;97262.66;4970133;28;20066;-56
2021/12/03 01:37:31;;;;;;;14.10;7.38;;;;;;;5.36;91.15;97268.69;4979655;28;20078;-57
2021/12/03 01:39:57;;;;;;;13.73;6.85;;;;;;;5.12;88.92;97266.88;4971707;28;20026;-57
2021/12/03 01:42:22;;;;;;;15.23;7.72;;;;;;;5.17;93.81;97270.19;4969854;28;20042;-56
2021/12/03 01:44:47;;;;;;;18.13;8.60;;;;;;;4.48;90.81;97279.97;4970817;28;20098;-56
2021/12/03 01:47:13;;;;;;;20.98;9.65;;;;;;;4.52;91.72;97277.28;4950945;28;20585;-57
2021/12/03 01:49:39;;;;;;;18.05;9.02;;;;;;;5.36;97.80;97284.22;4955627;28;20031;-56
2021/12/03 01:52:04;;;;;;;17.15;8.60;;;;;;;4.74;91.12;97276.63;4972179;28;20057;-57
2021/12/03 01:54:30;;;;;;;16.20;8.07;;;;;;;5.00;84.21;97288.81;4971511;28;20153;-57
2021/12/03 01:56:55;;;;;;;12.80;5.93;;;;;;;6.02;95.42;97286.41;4970499;28;20043;-57
2021/12/03 01:59:21;;;;;;;14.25;6.97;;;;;;;5.19;87.82;97287.31;4971085;28;20048;-57
2021/12/03 02:01:46;;;;;;;13.90;6.95;;;;;;;5.27;89.69;97294.84;4969088;28;20042;-57
2021/12/03 02:04:11;;;;;;;13.60;6.40;;;;;;;5.09;94.59;97293.69;4971916;28;20112;-57
2021/12/03 02:06:38;;;;;;;9.50;4.05;;;;;;;6.02;100.00;97290.75;4970727;28;20042;-56
2021/12/03 02:09:06;;;;;;;15.25;7.60;;;;;;;5.08;92.66;97296.31;4973084;28;20033;-56
2021/12/03 02:11:32;;;;;;;13.10;6.20;;;;;;;5.28;98.90;97299.13;4969724;28;20046;-56
2021/12/03 02:13:58;;;;;;;15.75;8.52;;;;;;;4.42;94.15;97294.72;4970864;28;20082;-56
2021/12/03 02:16:23;;;;;;;15.40;7.70;;;;;;;4.36;94.88;97296.66;4970303;28;20054;-56
2021/12/03 02:18:50;;;;;;;17.60;9.57;;;;;;;3.83;89.38;97295.44;4970438;28;20068;-56
2021/12/03 02:21:16;;;;;;;19.48;10.18;;;;;;;3.93;88.60;97303.78;4968015;28;20038;-57
2021/12/03 02:23:43;;;;;;;19.60;8.65;;;;;;;4.02;90.62;97303.53;4970293;28;20106;-55
2021/12/03 02:26:09;;;;;;;16.35;7.75;;;;;;;4.54;100.00;97295.28;4970543;28;20046;-57
2021/12/03 02:28:38;;;;;;;15.18;7.18;;;;;;;4.50;93.80;97299.69;4971528;28;20021;-56
2021/12/03 02:31:04;;;;;;;18.17;8.95;;;;;;;3.86;93.27;97305.69;4968590;28;20039;-56
2021/12/03 02:33:31;;;;;;;18.40;9.32;;;;;;;3.77;91.78;97308.50;4970495;28;20029;-56
2021/12/03 02:35:57;;;;;;;17.00;7.85;;;;;;;5.08;100.00;97310.06;4977479;28;20035;-56
2021/12/03 02:38:23;;;;;;;19.05;9.93;;;;;;;4.28;96.26;97307.16;4970499;28;20042;-56
2021/12/03 02:40:50;;;;;;;13.70;6.30;;;;;;;4.91;100.00;97320.09;4971279;28;20058;-57
2021/12/03 02:43:16;;;;;;;20.50;9.57;;;;;;;4.13;90.57;97315.31;4971530;28;20512;-56
2021/12/03 02:45:42;;;;;;;15.60;8.13;;;;;;;4.22;97.73;97320.25;4968758;28;20546;-56
2021/12/03 02:48:07;;;;;;;16.08;8.63;;;;;;;4.38;99.71;97321.53;4968896;28;20756;-57
2021/12/03 02:50:33;;;;;;;16.77;7.90;;;;;;;4.27;95.95;97323.56;4972231;28;20621;-56
2021/12/03 02:52:59;;;;;;;19.45;8.15;;;;;;;4.11;90.32;97322.28;4969461;28;20046;-57
2021/12/03 02:55:26;;;;;;;13.77;6.43;;;;;;;4.75;100.00;97325.69;4967720;28;20693;-56
2021/12/03 02:57:52;;;;;;;18.58;8.98;;;;;;;3.90;95.13;97329.69;4970745;28;20129;-56
2021/12/03 03:00:20;;;;;;;16.02;6.82;;;;;;;4.23;100.00;97337.44;4969431;28;20061;-56
2021/12/03 03:02:46;;;;;;;17.33;7.43;;;;;;;4.70;100.00;97326.69;4970504;28;20022;-57
2021/12/03 03:05:14;;;;;;;19.23;9.43;;;;;;;4.42;98.93;97323.13;4971748;28;20034;-57
2021/12/03 03:07:39;;;;;;;16.25;6.90;;;;;;;5.92;100.00;97323.84;4969742;28;20030;-56
2021/12/03 03:10:09;;;;;;;10.90;4.63;;;;;;;5.60;100.00;97336.91;4968340;28;20035;-56
2021/12/03 03:12:36;;;;;;;19.27;9.38;;;;;;;4.58;97.27;97333.06;4970648;28;20082;-57
2021/12/03 03:15:01;;;;;;;18.35;9.02;;;;;;;3.90;93.23;97349.44;4970223;28;20027;-56
2021/12/03 03:17:29;;;;;;;15.75;6.55;;;;;;;4.68;100.00;97347.41;4970707;28;20116;-56
2021/12/03 03:19:56;;;;;;;13.95;6.43;;;;;;;5.89;100.00;97353.25;4968349;28;20121;-56
2021/12/03 03:22:23;;;;;;;13.48;6.38;;;;;;;4.65;97.82;97344.94;4970641;28;20074;-58
2021/12/03 03:24:50;;;;;;;7.22;2.97;;;;;;;5.73;100.00;97352.88;4970745;28;20022;-57
2021/12/03 03:27:16;;;;;;;16.17;8.15;;;;;;;4.43;97.22;97350.66;4972149;28;20044;-60
2021/12/03 03:29:44;;;;;;;15.50;8.00;;;;;;;4.33;93.23;97354.38;4971010;28;20058;-56
2021/12/03 03:32:10;;;;;;;16.67;8.10;;;;;;;4.07;89.83;97356.78;4960823;28;20125;-57
2021/12/03 03:34:36;;;;;;;14.65;8.20;;;;;;;4.12;89.22;97360.06;4968052;28;20109;-56
2021/12/03 03:37:01;;;;;;;18.83;9.65;;;;;;;4.07;89.09;97357.63;4970569;28;20038;-56
2021/12/03 03:39:27;;;;;;;17.45;9.02;;;;;;;4.04;93.23;97362.84;4975353;28;20039;-57
2021/12/03 03:41:53;;;;;;;10.00;4.93;;;;;;;4.16;95.58;97367.72;4972618;28;20039;-57
2021/12/03 03:44:19;;;;;;;13.50;6.63;;;;;;;4.25;90.14;97376.97;4972546;28;20033;-57
2021/12/03 03:46:48;;;;;;;16.40;8.40;;;;;;;3.97;94.53;97385.41;4973880;28;20184;-56
2021/12/03 03:49:13;;;;;;;13.57;6.22;;;;;;;4.46;94.10;97385.03;4970856;28;20034;-59
2021/12/03 03:51:39;;;;;;;14.88;6.43;;;;;;;3.95;91.35;97379.44;4974805;28;20046;-56
2021/12/03 03:54:05;;;;;;;16.95;8.15;;;;;;;4.07;94.05;97388.59;4973068;28;20953;-56
2021/12/03 03:56:32;;;;;;;18.30;9.57;;;;;;;3.85;93.97;97388.28;4971661;28;20042;-56
2021/12/03 03:58:57;;;;;;;15.82;7.90;;;;;;;3.92;95.95;97394.16;4974311;28;20085;-57
2021/12/03 04:01:23;;;;;;;14.75;7.38;;;;;;;4.02;91.96;97385.28;4974059;28;20400;-56
2021/12/03 04:03:49;;;;;;;17.38;5.15;;;;;;;4.97;100.00;97392.25;4974850;28;20034;-56
2021/12/03 04:06:16;;;;;;;19.40;10.00;;;;;;;4.03;92.94;97395.56;4973140;28;20030;-57
2021/12/03 04:08:43;;;;;;;15.50;7.97;;;;;;;4.60;97.37;97396.69;4974222;28;20576;-57
2021/12/03 04:11:10;;;;;;;19.88;9.25;;;;;;;3.66;91.22;97399.03;4971958;28;20042;-56
2021/12/03 04:13:35;;;;;;;21.25;9.55;;;;;;;3.52;90.36;97395.91;4973174;28;20038;-57
2021/12/03 04:16:01;;;;;;;16.52;6.35;;;;;;;4.40;93.42;97406.72;4972350;28;20071;-56
2021/12/03 04:18:26;;;;;;;19.75;9.45;;;;;;;4.13;90.76;97403.09;4973610;28;20030;-56
2021/12/03 04:20:52;;;;;;;16.88;8.30;;;;;;;4.93;100.00;97413.91;4973676;28;20038;-58
2021/12/03 04:23:19;;;;;;;18.08;9.35;;;;;;;3.80;90.47;97414.16;4974207;28;20037;-57
2021/12/03 04:25:45;;;;;;;13.07;5.20;;;;;;;4.32;96.99;97413.78;4971351;28;20123;-56
2021/12/03 04:28:11;;;;;;;14.02;6.30;;;;;;;4.80;97.37;97411.66;4971994;28;20019;-56
2021/12/03 04:30:36;;;;;;;14.10;6.80;;;;;;;4.38;89.22;97414.50;4970408;28;20045;-57
2021/12/03 04:33:02;;;;;;;17.45;6.97;;;;;;;3.98;87.68;97417.22;4973712;28;20042;-56
2021/12/03 04:35:29;;;;;;;18.80;8.02;;;;;;;4.34;96.49;97428.38;4972077;28;20031;-56
2021/12/03 04:37:56;;;;;;;19.98;7.80;;;;;;;4.47;98.74;97426.31;4974900;28;20058;-56
2021/12/03 04:40:22;;;;;;;16.00;8.13;;;;;;;4.04;92.32;97429.94;4972507;28;20027;-59
2021/12/03 04:42:48;;;;;;;15.75;7.40;;;;;;;5.08;100.00;97431.56;4974570;28;20026;-57
2021/12/03 04:45:18;;;;;;;11.13;4.68;;;;;;;4.54;98.54;97437.31;4972781;28;20318;-56
2021/12/03 04:47:43;;;;;;;7.80;2.63;;;;;;;6.80;100.00;97440.03;4972009;28;20464;-56
2021/12/03 04:50:11;;;;;;;7.68;3.60;;;;;;;5.99;100.00;97436.66;4971902;28;20693;-57
2021/12/03 04:52:37;;;;;;;15.43;6.88;;;;;;;5.12;100.00;97433.16;4971845;28;20031;-56
2021/12/03 04:55:04;;;;;;;13.18;6.07;;;;;;;5.93;97.89;97447.19;4972813;28;20023;-56
2021/12/03 04:57:29;;;;;;;9.10;4.10;;;;;;;6.63;100.00;97444.06;4972115;28;20432;-56
2021/12/03 04:59:55;;;;;;;10.70;4.80;;;;;;;6.08;100.00;97451.06;4974535;28;20500;-56
2021/12/03 05:02:21;;;;;;;12.43;6.13;;;;;;;5.25;99.29;97456.09;4972207;28;20035;-57
2021/12/03 05:04:48;;;;;;;11.05;5.03;;;;;;;5.59;100.00;97464.56;4973553;28;20041;-57
2021/12/03 05:07:28;;;;;;;8.90;3.85;;;;;;;7.34;100.00;97455.38;4971964;28;20030;-57
2021/12/03 05:09:54;;;;;;;11.15;5.13;;;;;;;5.21;97.73;97456.19;4972160;28;20109;-57
2021/12/03 05:12:20;;;;;;;11.23;5.00;;;;;;;6.24;96.14;97462.63;4972925;28;20117;-56
2021/12/03 05:14:45;;;;;;;14.20;6.93;;;;;;;5.84;100.00;97474.19;4972381;28;20089;-56
2021/12/03 05:17:11;;;;;;;9.88;4.15;;;;;;;6.44;100.00;97474.09;4969538;28;20077;-57
2021/12/03 05:19:36;;;;;;;10.93;4.93;;;;;;;4.77;96.97;97484.06;4970517;28;20054;-57
2021/12/03 05:22:02;;;;;;;6.95;2.83;;;;;;;6.29;100.00;97494.41;4970336;28;20066;-57
2021/12/03 05:24:27;;;;;;;15.43;8.23;;;;;;;4.26;95.57;97492.22;4972355;28;20039;-57
2021/12/03 05:26:53;;;;;;;11.55;6.05;;;;;;;5.21;99.00;97505.31;4971710;28;20049;-56
2021/12/03 05:29:18;;;;;;;16.10;7.40;;;;;;;4.67;88.22;97513.63;4954279;28;20113;-59
2021/12/03 05:31:44;;;;;;;16.92;8.50;;;;;;;3.91;87.00;97522.28;4971398;28;20455;-56
2021/12/03 05:34:12;;;;;;;18.65;9.30;;;;;;;4.05;90.97;97525.41;4971207;28;20037;-56
2021/12/03 05:36:38;;;;;;;16.40;7.75;;;;;;;4.21;86.04;97531.09;4969925;28;20038;-57
2021/12/03 05:39:05;;;;;;;17.35;7.18;;;;;;;4.54;100.00;97532.88;4971854;28;20461;-56
2021/12/03 05:41:31;;;;;;;12.45;4.72;;;;;;;5.38;100.00;97535.03;4977992;28;20049;-57
2021/12/03 05:43:56;;;;;;;12.25;5.13;;;;;;;4.56;97.02;97531.13;4970586;28;20026;-56
2021/12/03 05:46:21;;;;;;;11.55;4.72;;;;;;;6.74;100.00;97535.25;4969088;28;20045;-56
2021/12/03 05:48:47;;;;;;;13.75;5.38;;;;;;;4.95;95.91;97546.53;4972333;28;20023;-57
2021/12/03 05:51:12;;;;;;;17.92;7.80;;;;;;;4.88;90.76;97539.81;4971729;28;20048;-56
2021/12/03 05:53:38;;;;;;;13.52;7.28;;;;;;;4.53;89.94;97542.38;4973762;28;20058;-57
2021/12/03 05:56:03;;;;;;;17.00;8.02;;;;;;;3.90;84.81;97551.56;4978546;28;20085;-56
2021/12/03 05:58:29;;;;;;;19.48;9.23;;;;;;;3.38;88.31;97553.47;4971287;28;20022;-56
2021/12/03 06:00:54;;;;;;;16.08;7.28;;;;;;;3.56;85.99;97552.25;4970085;28;20070;-55
2021/12/03 06:03:20;;;;;;;22.00;9.60;;;;;;;3.25;86.54;97555.44;4968465;28;20030;-56
2021/12/03 06:05:45;;;;;;;19.65;8.85;;;;;;;3.10;86.69;97563.44;4977249;28;20084;-55
2021/12/03 06:08:10;;;;;;;17.20;8.40;;;;;;;3.31;90.93;97566.50;4977684;28;20030;-55
2021/12/03 06:10:37;;;;;;;16.55;6.82;;;;;;;4.55;100.00;97565.59;4974358;28;20249;-56
2021/12/03 06:13:03;;;;;;;12.13;5.03;;;;;;;5.38;100.00;97568.66;4973655;28;20026;-55
2021/12/03 06:15:29;;;;;;;8.45;3.58;;;;;;;6.45;100.00;97566.44;4972201;28;20638;-56
2021/12/03 06:17:56;;;;;;;9.00;3.83;;;;;;;6.95;100.00;97577.78;4972989;28;20031;-57
2021/12/03 06:20:22;;;;;;;7.38;3.47;;;;;;;7.36;100.00;97577.25;4972799;28;20038;-57
2021/12/03 06:22:48;;;;;;;9.43;5.30;;;;;;;6.99;95.13;97580.28;4972834;28;20503;-55
2021/12/03 06:25:14;;;;;;;7.05;3.22;;;;;;;7.04;98.61;97583.53;4973740;28;20037;-55
2021/12/03 06:27:41;;;;;;;15.00;7.43;;;;;;;5.01;88.37;97582.53;4973356;28;20031;-55
2021/12/03 06:30:10;;;;;;;12.07;6.78;;;;;;;4.54;92.70;97584.53;4973354;28;20504;-55
2021/12/03 06:32:36;;;;;;;9.57;3.40;;;;;;;5.17;99.53;97588.19;4975930;28;20038;-55
2021/12/03 06:35:03;;;;;;;11.13;5.35;;;;;;;4.44;93.36;97587.34;4971097;28;20093;-55
2021/12/03 06:37:28;;;;;;;15.38;7.68;;;;;;;3.57;90.15;97590.06;4971289;28;20047;-55
2021/12/03 06:39:54;;;;;;;14.88;7.60;;;;;;;3.09;84.27;97597.84;4972157;28;20026;-55
2021/12/03 06:42:19;;;;;;;14.63;7.35;;;;;;;3.33;85.27;97595.66;4974699;28;20038;-55
2021/12/03 06:44:44;;;;;;;13.57;7.32;;;;;;;3.18;88.04;97597.66;4971525;28;20066;-54
2021/12/03 06:47:10;;;;;;;15.25;7.70;;;;;;;3.03;89.59;97598.78;4971151;28;20050;-55
2021/12/03 06:49:35;;;;;;;15.93;7.50;;;;;;;4.41;100.00;97605.50;4976512;28;20022;-55
2021/12/03 06:52:10;;;;;;;13.95;6.72;;;;;;;4.78;97.43;97604.66;4970787;28;20108;-55
2021/12/03 06:54:36;;;;;;;13.65;4.53;;;;;;;6.89;100.00;97611.69;4972032;28;20031;-55
2021/12/03 06:57:05;;;;;;;16.55;5.65;;;;;;;8.23;100.00;97614.78;4972465;28;20171;-55
2021/12/03 06:59:31;;;;;;;17.23;6.60;;;;;;;7.36;100.00;97621.38;4972255;28;20050;-55
2021/12/03 07:01:57;;;;;;;24.38;6.43;;;;;;;7.53;100.00;97629.44;4970666;28;20774;-55
2021/12/03 07:04:23;;;;;;;30.95;7.72;;;;;;;7.87;100.00;97617.84;4953056;28;20032;-55
2021/12/03 07:06:49;;;;;;;15.98;6.10;;;;;;;8.62;100.00;97627.19;4972314;28;20512;-56
2021/12/03 07:09:14;;;;;;;13.90;6.72;;;;;;;6.73;83.33;97616.50;4973470;28;20023;-55
2021/12/03 07:11:40;;;;;;;16.08;5.10;;;;;;;7.42;100.00;97626.34;4971197;28;20073;-55
2021/12/03 07:14:06;;;;;;;17.25;6.07;;;;;;;6.06;100.00;97627.16;4971336;28;20030;-55
2021/12/03 07:16:32;;;;;;;13.23;4.57;;;;;;;8.94;100.00;97634.63;4969839;28;20484;-55
2021/12/03 07:18:58;;;;;;;15.27;6.55;;;;;;;6.79;86.63;97645.72;4971626;28;20077;-55
2021/12/03 07:21:24;;;;;;;11.68;5.15;;;;;;;6.73;93.91;97646.78;4970476;28;20069;-56
2021/12/03 07:23:51;;;;;;;12.43;5.97;;;;;;;7.03;89.77;97650.13;4968222;28;20510;-57
2021/12/03 07:26:17;;;;;;;11.27;4.60;;;;;;;6.53;98.61;97653.41;4969491;28;20063;-56
2021/12/03 07:28:43;;;;;;;11.27;4.30;;;;;;;6.52;100.00;97653.44;4968493;28;20033;-55
2021/12/03 07:31:09;;;;;;;14.50;6.53;;;;;;;5.66;93.78;97661.03;4970363;28;20038;-54
2021/12/03 07:33:35;;;;;;;11.82;6.57;;;;;;;5.76;90.43;97667.66;4972253;28;20030;-55
2021/12/03 07:36:01;;;;;;;13.05;4.20;;;;;;;7.26;100.00;97664.06;4970694;28;20043;-55
2021/12/03 07:38:26;;;;;;;11.32;6.25;;;;;;;6.58;87.53;97668.81;4971073;28;20113;-55
2021/12/03 07:40:51;;;;;;;10.45;4.55;;;;;;;6.60;90.35;97667.03;4972770;28;20042;-56
2021/12/03 07:43:17;;;;;;;13.68;6.95;;;;;;;5.06;75.39;97670.31;4970082;28;20113;-56
2021/12/03 07:45:45;;;;;;;8.88;4.65;;;;;;;5.31;86.73;97670.56;4970625;28;20066;-56
2021/12/03 07:48:10;;;;;;;11.20;4.10;;;;;;;6.02;83.66;97684.25;4971622;28;20023;-55
2021/12/03 07:50:39;;;;;;;13.07;7.68;;;;;;;4.35;77.03;97690.84;4969684;28;20030;-55
2021/12/03 07:53:05;;;;;;;13.30;8.25;;;;;;;4.41;79.25;97684.69;4970601;28;20026;-56
2021/12/03 07:55:31;;;;;;;12.18;5.30;;;;;;;5.36;97.89;97689.41;4971192;28;20054;-55
2021/12/03 07:57:56;;;;;;;7.32;3.65;;;;;;;10.64;100.00;97682.91;4967129;28;20035;-55
2021/12/03 08:00:22;;;;;;;9.50;4.32;;;;;;;8.61;81.76;97687.88;4968563;28;20052;-56
2021/12/03 08:02:48;;;;;;;7.78;4.10;;;;;;;7.99;90.97;97689.25;4969931;28;20034;-56
2021/12/03 08:05:13;;;;;;;10.25;4.50;;;;;;;8.05;74.54;97691.66;4968512;28;20023;-55
2021/12/03 08:07:39;;;;;;;9.63;5.00;;;;;;;6.94;82.59;97699.69;4969853;28;20069;-55
2021/12/03 08:10:06;;;;;;;7.90;3.85;;;;;;;7.52;82.71;97695.22;4968933;28;20034;-56
2021/12/03 08:12:31;;;;;;;7.43;3.85;;;;;;;7.28;82.17;97696.03;4969910;28;20504;-56
2021/12/03 08:14:57;;;;;;;6.60;3.20;;;;;;;10.07;98.74;97699.28;4968946;28;20034;-56
2021/12/03 08:17:22;;;;;;;5.60;2.80;;;;;;;14.03;76.31;97692.91;4970700;28;20039;-55
2021/12/03 08:19:47;;;;;;;8.25;3.40;;;;;;;12.13;68.63;97709.56;4971601;28;20468;-55
2021/12/03 08:22:13;;;;;;;6.20;3.17;;;;;;;10.25;71.21;97702.03;4971413;28;20050;-55
2021/12/03 08:24:38;;;;;;;8.32;4.72;;;;;;;8.21;74.22;97715.31;4974171;28;20078;-56
2021/12/03 08:27:04;;;;;;;6.05;3.08;;;;;;;8.78;86.14;97715.00;4972797;28;20416;-55
2021/12/03 08:29:29;;;;;;;6.03;2.83;;;;;;;13.14;72.30;97713.78;4974938;28;20026;-56
2021/12/03 08:31:55;;;;;;;6.88;3.28;;;;;;;11.92;66.62;97716.75;4971827;28;20035;-57
2021/12/03 08:34:21;;;;;;;11.50;3.10;;;;;;;13.59;71.45;97706.84;4973012;28;20026;-55
2021/12/03 08:36:46;;;;;;;7.25;3.88;;;;;;;12.56;56.03;97711.72;4975599;28;20046;-55
2021/12/03 08:39:11;;;;;;;4.53;2.70;;;;;;;14.15;64.46;97711.47;4974020;28;20057;-55
2021/12/03 08:41:37;;;;;;;4.43;2.80;;;;;;;11.32;82.45;97717.09;4972567;28;20154;-55
2021/12/03 08:44:04;;;;;;;9.70;6.35;;;;;;;8.88;59.33;97724.16;4972603;28;20701;-56
2021/12/03 08:46:36;;;;;;;5.75;3.17;;;;;;;11.40;63.10;97714.13;4974963;28;20035;-55
2021/12/03 08:49:15;;;;;;;;;;;;;;;9.55;79.48;97727.56;4983527;28;20088;-55
2021/12/03 08:56:51;;;;;;;5.78;2.80;;;;;;;13.55;72.88;97723.69;4971023;28;20131;-55
2021/12/03 08:59:17;;;;;;;6.60;2.78;;;;;;;12.04;78.26;97728.34;4972632;28;20130;-55
2021/12/03 09:01:43;;;;;;;7.35;4.57;;;;;;;8.83;77.47;97723.47;4973834;28;20148;-55
2021/12/03 09:04:09;;;;;;;5.72;2.90;;;;;;;12.83;70.35;97718.06;4971086;28;20038;-55
2021/12/03 09:06:35;;;;;;;5.10;3.05;;;;;;;11.03;77.41;97726.31;4972447;28;20040;-55
2021/12/03 09:09:00;;;;;;;5.18;2.88;;;;;;;13.98;65.87;97715.94;4972455;28;20027;-55
2021/12/03 09:11:28;;;;;;;4.50;2.75;;;;;;;12.90;70.26;97721.19;4973012;28;20637;-55
2021/12/03 09:13:53;;;;;;;4.93;3.40;;;;;;;8.57;60.78;97724.47;4973897;28;20033;-56
2021/12/03 09:16:21;;;;;;;6.35;3.42;;;;;;;13.39;65.66;97731.56;4970186;28;20125;-55
2021/12/03 09:18:49;;;;;;;4.88;3.13;;;;;;;13.41;66.03;97737.56;4974087;28;20046;-55
2021/12/03 09:23:58;;;;;;;5.50;3.10;;;;;;;13.34;58.89;97728.38;4973918;28;20026;-55
2021/12/03 09:26:26;;;;;;;4.97;3.20;;;;;;;12.25;65.43;97732.47;4972616;28;20121;-55
2021/12/03 09:29:00;;;;;;;5.63;2.97;;;;;;;13.80;57.75;97722.25;4974224;28;20591;-55
2021/12/03 09:31:26;;;;;;;4.82;2.25;;;;;;;15.20;64.11;97727.72;4972456;28;20042;-56
2021/12/03 09:33:51;;;;;;;5.38;3.25;;;;;;;13.61;65.24;97732.97;4971908;28;20071;-55
2021/12/03 09:36:17;;;;;;;4.80;2.50;;;;;;;15.49;60.06;97732.84;4970980;28;20043;-55
2021/12/03 09:38:42;;;;;;;5.65;3.70;;;;;;;12.52;61.41;97730.19;4971707;28;20481;-55
2021/12/03 09:41:12;;;;;;;5.15;2.40;;;;;;;14.80;58.87;97732.88;4971403;28;20050;-55
2021/12/03 09:43:41;;;;;;;4.50;2.45;;;;;;;16.04;59.57;97722.28;4972603;28;20027;-56
2021/12/03 09:46:25;;;;;;;3.78;2.33;;;;;;;15.11;62.16;97727.44;4971839;28;20043;-56
2021/12/03 09:51:40;;;;;;;5.35;2.22;;;;;;;15.61;58.94;97724.16;4971800;28;20070;-56
2021/12/03 09:56:47;;;;;;;4.28;2.35;;;;;;;15.09;61.84;97714.44;4972490;28;20038;-56
2021/12/03 10:12:56;;;;;;;3.20;2.28;;;;;;;13.82;53.08;97709.91;4974306;28;20052;-56
2021/12/03 10:15:31;;;;;;;3.40;2.40;;;;;;;13.19;65.79;97705.63;4958056;28;20041;-56
2021/12/03 10:31:55;;;;;;;3.90;2.30;;;;;;;11.88;72.06;97694.31;4972700;28;20046;-56
2021/12/03 10:48:16;;;;;;;4.85;3.20;;;;;;;11.11;60.38;97683.28;4970908;28;20076;-55
2021/12/03 10:50:50;;;;;;;4.95;2.63;;;;;;;8.40;62.11;97689.53;4968931;28;20043;-55
2021/12/03 11:15:18;;;;;;;8.00;3.78;;;;;;;10.29;68.77;97677.50;4970627;28;20151;-55
2021/12/03 11:31:16;;;;;;;4.57;3.00;;;;;;;9.70;64.49;97680.03;4971686;28;20042;-55
2021/12/03 11:39:08;;;;;;;5.03;2.75;;;;;;;14.51;58.92;97665.56;4970379;28;20023;-56
2021/12/03 11:45:07;;;;;;;4.53;2.65;;;;;;;9.21;53.63;97663.91;4971295;28;20026;-55
2021/12/03 13:16:34;;;;;;;6.53;3.25;;;;;;;9.63;55.28;97600.50;4971642;28;20701;-55
2021/12/03 14:06:41;;;;;;;4.45;2.28;;;;;;;10.35;68.86;97578.22;4971415;28;20437;-55
2021/12/03 14:39:12;;;;;;;6.90;3.50;;;;;;;7.67;58.82;97579.63;4970945;28;20050;-55
2021/12/03 15:00:17;;;;;;;;;;;;;;;5.53;65.46;97568.25;4971626;28;20678;-54
2021/12/03 15:02:56;;;;;;;6.63;3.22;;;;;;;6.04;69.75;97561.63;4969519;28;19957;-54
2021/12/03 15:08:10;;;;;;;7.60;3.50;;;;;;;5.99;63.54;97576.44;4971603;28;20018;-55
2021/12/03 15:11:49;;;;;;;6.43;3.03;;;;;;;6.22;65.46;97585.28;4970091;28;20034;-54
2021/12/03 15:19:11;;;;;;;9.15;4.25;;;;;;;5.56;65.03;97575.91;4954801;28;20043;-54
2021/12/03 15:24:36;;;;;;;11.50;4.55;;;;;;;5.27;69.69;97581.03;4971430;28;20042;-55
2021/12/03 16:04:14;;;;;;;11.82;4.50;;;;;;;4.76;74.85;97540.94;4973728;28;20163;-55
2021/12/03 16:12:26;;;;;;;10.38;4.50;;;;;;;5.02;80.29;97545.47;4970435;28;20065;-54
2021/12/03 16:15:59;;;;;;;9.18;3.97;;;;;;;4.13;73.89;97552.78;4970263;28;20373;-55
2021/12/03 16:43:40;;;;;;;10.05;4.00;;;;;;;4.71;75.34;97541.09;4969164;28;20041;-55
2021/12/03 16:47:03;;;;;;;15.32;6.38;;;;;;;2.60;72.56;97529.13;4975989;28;20043;-55
2021/12/03 16:52:11;;;;;;;12.85;5.07;;;;;;;2.74;75.90;97513.41;4973736;28;20035;-54
2021/12/03 16:54:43;;;;;;;13.18;6.03;;;;;;;2.91;78.14;97505.41;4973446;28;20042;-54
2021/12/03 16:57:11;;;;;;;14.25;5.80;;;;;;;2.27;74.49;97497.91;4974039;28;20405;-54
2021/12/03 16:59:39;;;;;;;11.77;3.72;;;;;;;3.12;85.64;97499.84;4973497;28;20571;-54
2021/12/03 17:02:08;;;;;;;12.63;4.53;;;;;;;2.44;77.86;97498.47;4972895;28;20046;-54
2021/12/03 17:04:44;;;;;;;12.63;4.93;;;;;;;3.07;79.91;97502.50;4972806;28;20022;-54
2021/12/03 17:12:37;;;;;;;13.00;4.90;;;;;;;2.35;78.05;97498.63;4973617;28;20125;-54
2021/12/03 18:01:16;;;;;;;9.68;3.80;;;;;;;4.80;83.57;97468.50;4971622;28;20505;-57
2021/12/03 18:03:34;;;;;;;8.50;3.47;;;;;;;5.41;77.63;97465.97;4966117;28;20121;-55
2021/12/03 18:08:43;;;;;;;9.57;3.88;;;;;;;5.53;76.36;97464.78;4973789;28;20030;-55
2021/12/03 18:51:37;;;;;;;9.30;3.53;;;;;;;6.08;87.83;97410.47;4971156;28;20116;-55
2021/12/03 18:57:12;;;;;;;11.15;4.75;;;;;;;3.53;73.83;97407.94;4959015;28;20042;-56
2021/12/03 18:59:50;;;;;;;12.25;4.90;;;;;;;3.15;74.89;97407.00;4969825;28;20030;-55
2021/12/03 19:02:15;;;;;;;11.60;5.45;;;;;;;2.72;74.10;97401.88;4970471;28;20042;-55
2021/12/03 19:04:52;;;;;;;14.55;6.03;;;;;;;2.68;76.35;97401.06;4971070;28;20034;-55
2021/12/03 19:07:26;;;;;;;13.48;5.80;;;;;;;1.95;75.67;97411.81;4970552;28;20038;-55
2021/12/03 19:09:54;;;;;;;12.73;5.10;;;;;;;2.90;79.36;97404.09;4969291;28;20061;-55
2021/12/03 19:12:25;;;;;;;12.20;4.55;;;;;;;4.16;89.57;97392.69;4971165;28;20074;-55
2021/12/03 19:14:55;;;;;;;11.93;4.68;;;;;;;3.88;77.23;97383.06;4968349;28;20503;-55
2021/12/03 19:17:22;;;;;;;15.68;5.63;;;;;;;2.89;75.77;97376.66;4970179;28;20042;-55